createdAt,value
2022-09-09T00:00:24.789Z,19.30
2022-09-09T00:02:56.354Z,26.15
2022-09-09T00:05:27.546Z,24.58
2022-09-09T00:07:56.137Z,26.83
2022-09-09T00:10:23.356Z,22.10
2022-09-09T00:13:02.580Z,22.25
2022-09-09T00:15:37.912Z,15.63
2022-09-09T00:18:05.295Z,27.23
2022-09-09T00:20:44.597Z,22.25
2022-09-09T00:23:30.010Z,26.25
2022-09-09T00:26:16.194Z,27.88
2022-09-09T00:28:47.706Z,29.83
2022-09-09T00:31:17.449Z,22.25
2022-09-09T00:33:45.065Z,23.75
2022-09-09T00:36:18.202Z,16.30
2022-09-09T00:38:57.084Z,14.88
2022-09-09T00:41:31.419Z,20.23
2022-09-09T00:44:02.225Z,22.77
2022-09-09T00:46:38.539Z,24.80
2022-09-09T00:49:06.180Z,24.05
2022-09-09T00:51:36.321Z,19.52
2022-09-09T00:54:18.278Z,9.90
2022-09-09T00:57:03.887Z,9.90
2022-09-09T00:59:51.968Z,15.02
2022-09-09T01:02:23.298Z,12.88
2022-09-09T01:04:50.650Z,11.48
2022-09-09T01:07:19.942Z,12.52
2022-09-09T01:09:56.068Z,14.45
2022-09-09T01:12:28.037Z,17.40
2022-09-09T01:15:11.133Z,18.23
2022-09-09T01:17:57.313Z,17.08
2022-09-09T01:20:24.601Z,12.85
2022-09-09T01:22:57.904Z,9.27
2022-09-09T01:25:43.833Z,18.58
2022-09-09T01:28:27.132Z,14.70
2022-09-09T01:30:54.903Z,19.85
2022-09-09T01:33:22.322Z,10.50
2022-09-09T01:35:57.291Z,23.60
2022-09-09T01:38:25.567Z,12.50
2022-09-09T01:40:53.299Z,21.52
2022-09-09T01:43:21.813Z,26.05
2022-09-09T01:45:50.633Z,18.30
2022-09-09T01:48:18.302Z,9.20
2022-09-09T01:50:45.555Z,7.68
2022-09-09T01:53:13.022Z,11.60
2022-09-09T01:55:41.263Z,8.93
2022-09-09T01:58:28.729Z,10.40
2022-09-09T02:01:03.988Z,10.63
2022-09-09T02:03:34.748Z,9.93
2022-09-09T02:06:08.378Z,8.75
2022-09-09T02:08:44.271Z,6.47
2022-09-09T02:11:18.892Z,6.80
2022-09-09T02:13:47.453Z,5.95
2022-09-09T02:16:14.746Z,8.25
2022-09-09T02:18:45.153Z,12.35
2022-09-09T02:21:14.694Z,9.40
2022-09-09T02:23:43.793Z,9.95
2022-09-09T02:26:12.161Z,3.60
2022-09-09T02:28:40.221Z,2.78
2022-09-09T02:31:07.946Z,8.23
2022-09-09T02:33:37.579Z,9.55
2022-09-09T02:36:07.639Z,11.60
2022-09-09T02:38:38.240Z,5.97
2022-09-09T02:41:05.519Z,8.50
2022-09-09T02:43:33.398Z,6.13
2022-09-09T02:46:00.657Z,8.27
2022-09-09T02:48:28.001Z,9.25
2022-09-09T02:50:58.286Z,9.02
2022-09-09T02:53:31.012Z,10.57
2022-09-09T02:58:25.432Z,5.13
2022-09-09T03:00:54.065Z,9.13
2022-09-09T03:03:22.987Z,8.18
2022-09-09T03:05:50.285Z,8.23
2022-09-09T03:08:18.106Z,11.20
2022-09-09T03:10:45.873Z,7.93
2022-09-09T03:13:16.071Z,10.63
2022-09-09T03:15:43.530Z,14.85
2022-09-09T03:18:10.743Z,12.20
2022-09-09T03:20:38.142Z,12.55
2022-09-09T03:23:05.421Z,9.20
2022-09-09T03:25:33.002Z,13.43
2022-09-09T03:28:00.206Z,7.72
2022-09-09T03:30:28.252Z,14.20
2022-09-09T03:32:56.287Z,6.68
2022-09-09T03:35:23.512Z,5.82
2022-09-09T03:37:50.776Z,7.18
2022-09-09T03:40:21.114Z,7.97
2022-09-09T03:42:49.053Z,5.93
2022-09-09T03:45:16.551Z,5.82
2022-09-09T03:47:43.765Z,9.38
2022-09-09T03:50:11.987Z,3.08
2022-09-09T03:52:39.720Z,3.33
2022-09-09T03:55:07.298Z,6.90
2022-09-09T03:57:35.998Z,2.38
2022-09-09T04:00:07.768Z,9.85
2022-09-09T04:02:35.098Z,6.57
2022-09-09T04:05:02.468Z,7.55
2022-09-09T04:07:29.720Z,5.30
2022-09-09T04:09:57.496Z,7.65
2022-09-09T04:12:24.759Z,6.82
2022-09-09T04:14:52.042Z,5.75
2022-09-09T04:17:19.329Z,6.13
2022-09-09T04:19:47.694Z,3.55
2022-09-09T04:22:15.173Z,4.88
2022-09-09T04:24:45.595Z,6.13
2022-09-09T04:27:15.849Z,5.78
2022-09-09T04:29:43.045Z,12.15
2022-09-09T04:32:10.251Z,5.65
2022-09-09T04:34:37.535Z,6.53
2022-09-09T04:37:04.790Z,3.70
2022-09-09T04:39:31.996Z,5.57
2022-09-09T04:41:59.264Z,7.70
2022-09-09T04:44:26.544Z,6.65
2022-09-09T04:46:53.787Z,9.90
2022-09-09T04:49:20.976Z,6.90
2022-09-09T04:51:50.331Z,9.75
2022-09-09T04:54:17.534Z,4.57
2022-09-09T04:56:45.312Z,5.63
2022-09-09T04:59:12.483Z,8.60
2022-09-09T05:01:39.783Z,7.40
2022-09-09T05:04:07.036Z,5.32
2022-09-09T05:06:34.230Z,15.25
2022-09-09T05:09:01.744Z,2.75
2022-09-09T05:11:30.914Z,4.90
2022-09-09T05:13:58.427Z,7.78
2022-09-09T05:16:26.121Z,13.32
2022-09-09T05:18:53.360Z,3.97
2022-09-09T05:21:22.355Z,6.05
2022-09-09T05:23:49.590Z,8.45
2022-09-09T05:26:18.181Z,6.38
2022-09-09T05:28:45.816Z,8.40
2022-09-09T05:31:13.947Z,5.95
2022-09-09T05:33:42.332Z,10.52
2022-09-09T05:36:11.818Z,6.53
2022-09-09T05:38:39.271Z,6.15
2022-09-09T05:41:06.938Z,7.63
2022-09-09T05:43:34.257Z,3.70
2022-09-09T05:46:09.135Z,6.47
2022-09-09T05:48:38.363Z,7.82
2022-09-09T05:51:07.766Z,6.82
2022-09-09T05:53:38.386Z,4.78
2022-09-09T05:56:06.694Z,8.02
2022-09-09T05:58:34.271Z,7.25
2022-09-09T06:01:04.638Z,5.78
2022-09-09T06:03:32.731Z,9.82
2022-09-09T06:06:00.909Z,6.28
2022-09-09T06:08:28.171Z,7.47
2022-09-09T06:10:55.642Z,3.50
2022-09-09T06:13:22.937Z,8.18
2022-09-09T06:15:53.530Z,6.15
2022-09-09T06:18:21.882Z,6.32
2022-09-09T06:20:55.678Z,6.18
2022-09-09T06:23:23.018Z,6.90
2022-09-09T06:25:50.385Z,9.68
2022-09-09T06:28:18.104Z,25.70
2022-09-09T06:30:45.580Z,10.88
2022-09-09T06:33:12.881Z,5.82
2022-09-09T06:35:40.101Z,7.75
2022-09-09T06:38:07.555Z,4.70
2022-09-09T06:40:34.742Z,5.38
2022-09-09T06:43:02.803Z,5.20
2022-09-09T06:45:30.086Z,6.40
2022-09-09T06:47:57.761Z,6.22
2022-09-09T06:50:25.070Z,4.85
2022-09-09T06:52:52.675Z,6.70
2022-09-09T06:55:20.314Z,8.55
2022-09-09T06:57:47.513Z,10.05
2022-09-09T07:00:15.035Z,4.35
2022-09-09T07:02:42.457Z,4.82
2022-09-09T07:05:10.255Z,4.88
2022-09-09T07:07:37.762Z,7.00
2022-09-09T07:10:05.474Z,4.78
2022-09-09T07:12:32.701Z,9.15
2022-09-09T07:15:00.073Z,9.63
2022-09-09T07:17:27.322Z,5.80
2022-09-09T07:19:54.532Z,9.13
2022-09-09T07:22:21.720Z,6.32
2022-09-09T07:24:50.572Z,8.20
2022-09-09T07:27:17.838Z,6.35
2022-09-09T07:29:46.327Z,11.13
2022-09-09T07:32:13.582Z,7.82
2022-09-09T07:34:40.994Z,9.65
2022-09-09T07:37:08.969Z,6.90
2022-09-09T07:39:36.201Z,5.60
2022-09-09T07:42:03.453Z,6.93
2022-09-09T07:44:30.941Z,5.22
2022-09-09T07:46:58.262Z,7.72
2022-09-09T07:49:29.831Z,7.13
2022-09-09T07:51:59.714Z,8.40
2022-09-09T07:54:27.185Z,4.78
2022-09-09T07:56:54.414Z,4.43
2022-09-09T07:59:21.781Z,5.63
2022-09-09T08:01:54.411Z,5.93
2022-09-09T08:06:50.446Z,3.63
2022-09-09T08:09:18.204Z,4.50
2022-09-09T08:11:45.850Z,5.35
2022-09-09T08:14:13.649Z,3.13
2022-09-09T08:16:42.700Z,4.07
2022-09-09T08:19:10.931Z,4.80
2022-09-09T08:21:39.980Z,3.03
2022-09-09T08:24:08.036Z,2.22
2022-09-09T08:26:39.737Z,3.60
2022-09-09T08:29:07.886Z,2.30
2022-09-09T08:31:36.608Z,2.40
2022-09-09T08:34:07.445Z,4.82
2022-09-09T08:36:36.915Z,4.88
2022-09-09T08:39:04.891Z,4.32
2022-09-09T08:41:40.765Z,3.40
2022-09-09T08:44:27.015Z,2.85
2022-09-09T08:46:56.957Z,3.40
2022-09-09T08:49:39.887Z,1.88
2022-09-09T08:54:51.637Z,3.90
2022-09-09T08:57:28.617Z,3.05
2022-09-09T08:59:57.594Z,4.43
2022-09-09T09:02:29.669Z,2.85
2022-09-09T09:05:15.708Z,3.50
2022-09-09T09:07:57.614Z,4.22
2022-09-09T09:10:41.105Z,8.60
2022-09-09T09:13:14.360Z,5.22
2022-09-09T09:15:43.072Z,7.82
2022-09-09T09:18:10.607Z,6.00
2022-09-09T09:20:43.816Z,5.05
2022-09-09T09:23:16.537Z,3.63
2022-09-09T09:25:44.389Z,8.55
2022-09-09T09:28:18.514Z,6.97
2022-09-09T09:30:55.043Z,6.43
2022-09-09T09:33:22.289Z,6.18
2022-09-09T09:35:51.445Z,5.25
2022-09-09T09:41:11.306Z,5.40
2022-09-09T09:43:41.514Z,5.30
2022-09-09T09:46:20.895Z,6.25
2022-09-09T09:48:58.158Z,3.63
2022-09-09T09:51:26.001Z,3.55
2022-09-09T09:53:54.832Z,5.20
2022-09-09T09:56:30.099Z,7.65
2022-09-09T09:58:57.525Z,7.40
2022-09-09T10:01:29.009Z,3.92
2022-09-09T10:03:58.821Z,5.68
2022-09-09T10:06:34.090Z,4.93
2022-09-09T10:09:02.308Z,5.18
2022-09-09T10:11:37.932Z,5.68
2022-09-09T10:14:21.249Z,8.85
2022-09-09T10:17:00.481Z,5.15
2022-09-09T10:19:28.181Z,3.50
2022-09-09T10:22:04.534Z,1.80
2022-09-09T10:24:31.788Z,1.65
2022-09-09T10:27:07.625Z,3.90
2022-09-09T10:29:39.149Z,1.75
2022-09-09T10:32:06.394Z,2.38
2022-09-09T10:34:40.386Z,3.25
2022-09-09T10:37:13.455Z,3.55
2022-09-09T10:39:43.060Z,2.30
2022-09-09T10:42:17.691Z,3.25
2022-09-09T10:44:44.946Z,1.20
2022-09-09T10:47:27.940Z,7.22
2022-09-09T10:50:14.436Z,3.25
2022-09-09T10:52:54.815Z,2.03
2022-09-09T10:55:29.844Z,7.00
2022-09-09T10:57:58.564Z,6.88
2022-09-09T11:00:27.837Z,4.72
2022-09-09T11:02:57.981Z,3.63
2022-09-09T11:05:25.176Z,4.57
2022-09-09T11:08:01.399Z,3.63
2022-09-09T11:10:49.734Z,6.60
2022-09-09T11:13:23.109Z,7.30
2022-09-09T11:16:26.617Z,1.52
2022-09-09T11:18:58.245Z,1.17
2022-09-09T11:21:29.628Z,1.67
2022-09-09T11:24:02.991Z,3.40
2022-09-09T11:26:47.841Z,7.93
2022-09-09T11:29:24.412Z,4.25
2022-09-09T11:32:11.969Z,4.72
2022-09-09T11:34:57.635Z,2.75
2022-09-09T11:37:35.736Z,3.33
2022-09-09T11:40:14.811Z,0.65
2022-09-09T11:42:43.152Z,1.48
2022-09-09T11:45:12.223Z,5.25
2022-09-09T11:47:39.486Z,1.83
2022-09-09T11:50:13.294Z,2.45
2022-09-09T11:52:44.418Z,2.47
2022-09-09T11:55:34.004Z,2.97
2022-09-09T11:58:16.092Z,4.07
2022-09-09T12:00:47.995Z,2.45
2022-09-09T12:03:50.641Z,2.35
2022-09-09T12:06:29.257Z,5.88
2022-09-09T12:08:59.070Z,4.47
2022-09-09T12:11:30.046Z,4.07
2022-09-09T12:13:58.125Z,3.05
2022-09-09T12:16:39.561Z,4.28
2022-09-09T12:19:08.766Z,4.20
2022-09-09T12:21:48.760Z,2.00
2022-09-09T12:24:21.570Z,1.35
2022-09-09T12:26:56.926Z,5.30
2022-09-09T12:29:31.350Z,13.70
2022-09-09T12:32:19.626Z,3.58
2022-09-09T12:34:52.002Z,2.08
2022-09-09T12:37:34.097Z,2.38
2022-09-09T12:40:03.935Z,2.45
2022-09-09T12:42:31.239Z,2.65
2022-09-09T12:44:58.497Z,1.80
2022-09-09T12:47:41.509Z,6.40
2022-09-09T12:50:38.063Z,2.53
2022-09-09T12:53:27.304Z,5.80
2022-09-09T12:56:14.813Z,4.70
2022-09-09T12:58:47.852Z,2.72
2022-09-09T13:01:24.300Z,3.85
2022-09-09T13:03:51.759Z,6.20
2022-09-09T13:06:29.144Z,2.10
2022-09-09T13:08:58.114Z,7.50
2022-09-09T13:11:27.643Z,6.13
2022-09-09T13:13:56.801Z,5.78
2022-09-09T13:16:32.528Z,4.85
2022-09-09T13:19:02.282Z,1.77
2022-09-09T13:21:38.817Z,4.20
2022-09-09T13:24:08.547Z,3.20
2022-09-09T13:26:36.414Z,5.68
2022-09-09T13:29:18.687Z,2.63
2022-09-09T13:31:46.534Z,1.35
2022-09-09T13:34:15.132Z,3.28
2022-09-09T13:36:42.600Z,2.92
2022-09-09T13:39:18.757Z,7.82
2022-09-09T13:41:46.719Z,7.70
2022-09-09T13:44:24.317Z,6.97
2022-09-09T13:47:10.598Z,4.32
2022-09-09T13:49:38.180Z,4.93
2022-09-09T13:52:09.719Z,4.03
2022-09-09T13:54:36.947Z,5.65
2022-09-09T13:57:05.420Z,3.13
2022-09-09T14:00:04.007Z,2.60
2022-09-09T14:02:20.016Z,2.83
2022-09-09T14:04:48.280Z,2.67
2022-09-09T14:07:16.161Z,3.55
2022-09-09T14:09:43.624Z,1.83
2022-09-09T14:12:15.971Z,2.95
2022-09-09T14:14:43.652Z,1.52
2022-09-09T14:17:11.099Z,2.55
2022-09-09T14:19:38.305Z,6.40
2022-09-09T14:22:05.585Z,5.00
2022-09-09T14:24:32.872Z,5.00
2022-09-09T14:27:00.081Z,2.58
2022-09-09T14:29:27.685Z,5.82
2022-09-09T14:31:54.986Z,3.08
2022-09-09T14:34:22.210Z,4.88
2022-09-09T14:36:49.491Z,1.50
2022-09-09T14:39:16.734Z,4.80
2022-09-09T14:41:44.094Z,7.57
2022-09-09T14:44:11.295Z,1.33
2022-09-09T14:46:38.577Z,5.45
2022-09-09T14:49:05.830Z,2.72
2022-09-09T14:51:33.139Z,1.38
2022-09-09T14:54:02.896Z,1.65
2022-09-09T14:56:31.613Z,5.25
2022-09-09T14:59:01.727Z,0.40
2022-09-09T15:01:29.434Z,1.50
2022-09-09T15:04:03.913Z,5.95
2022-09-09T15:06:33.994Z,1.23
2022-09-09T15:09:01.680Z,2.38
2022-09-09T15:11:31.439Z,3.40
2022-09-09T15:13:59.239Z,4.30
2022-09-09T15:16:28.326Z,3.47
2022-09-09T15:18:57.552Z,1.52
2022-09-09T15:21:26.358Z,5.10
2022-09-09T15:23:53.577Z,3.35
2022-09-09T15:26:21.850Z,4.03
2022-09-09T15:28:50.635Z,4.65
2022-09-09T15:31:19.526Z,1.52
2022-09-09T15:33:50.613Z,1.90
2022-09-09T15:36:25.007Z,3.30
2022-09-09T15:38:52.807Z,4.57
2022-09-09T15:41:20.937Z,1.98
2022-09-09T15:43:49.746Z,4.07
2022-09-09T15:46:25.384Z,0.30
2022-09-09T15:48:54.350Z,2.60
2022-09-09T15:51:41.761Z,1.52
2022-09-09T15:54:10.572Z,3.28
2022-09-09T15:56:37.749Z,1.80
2022-09-09T15:59:05.427Z,2.10
2022-09-09T16:01:33.562Z,4.10
2022-09-09T16:04:01.146Z,3.80
2022-09-09T16:06:29.379Z,5.88
2022-09-09T16:08:57.857Z,1.52
2022-09-09T16:11:29.071Z,2.85
2022-09-09T16:13:57.282Z,1.13
2022-09-09T16:16:28.618Z,3.40
2022-09-09T16:18:56.800Z,4.38
2022-09-09T16:21:25.470Z,1.60
2022-09-09T16:23:54.391Z,1.83
2022-09-09T16:26:22.180Z,2.25
2022-09-09T16:28:49.588Z,5.93
2022-09-09T16:31:24.277Z,5.63
2022-09-09T16:33:51.755Z,4.57
2022-09-09T16:36:26.660Z,5.63
2022-09-09T16:38:55.851Z,4.95
2022-09-09T16:41:23.421Z,3.97
2022-09-09T16:43:55.102Z,5.53
2022-09-09T16:46:23.049Z,4.20
2022-09-09T16:48:50.356Z,3.92
2022-09-09T16:51:17.562Z,7.15
2022-09-09T16:53:45.264Z,6.97
2022-09-09T16:56:17.239Z,5.18
2022-09-09T16:58:46.167Z,5.75
2022-09-09T17:01:15.294Z,4.32
2022-09-09T17:03:42.826Z,6.43
2022-09-09T17:06:14.060Z,4.57
2022-09-09T17:08:44.761Z,4.88
2022-09-09T17:11:19.584Z,3.90
2022-09-09T17:13:49.701Z,3.17
2022-09-09T17:16:17.947Z,3.70
2022-09-09T17:18:46.714Z,5.82
2022-09-09T17:21:15.131Z,4.78
2022-09-09T17:23:42.855Z,11.40
2022-09-09T17:26:11.405Z,8.85
2022-09-09T17:28:39.744Z,6.18
2022-09-09T17:31:10.836Z,4.45
2022-09-09T17:33:41.716Z,8.43
2022-09-09T17:36:14.081Z,5.20
2022-09-09T17:38:43.532Z,5.80
2022-09-09T17:41:15.461Z,4.13
2022-09-09T17:43:43.456Z,6.50
2022-09-09T17:46:13.377Z,5.03
2022-09-09T17:48:41.132Z,4.57
2022-09-09T17:51:10.045Z,7.85
2022-09-09T17:53:41.902Z,6.50
2022-09-09T17:56:10.574Z,5.00
2022-09-09T17:58:38.121Z,4.88
2022-09-09T18:01:10.202Z,3.65
2022-09-09T18:03:38.412Z,3.67
2022-09-09T18:06:06.607Z,3.70
2022-09-09T18:08:36.843Z,4.68
2022-09-09T18:11:04.818Z,5.03
2022-09-09T18:13:32.095Z,6.40
2022-09-09T18:15:59.836Z,6.18
2022-09-09T18:18:27.337Z,6.25
2022-09-09T18:21:06.499Z,6.80
2022-09-09T18:23:41.098Z,8.65
2022-09-09T18:26:10.396Z,3.95
2022-09-09T18:28:38.518Z,3.22
2022-09-09T18:31:07.152Z,2.28
2022-09-09T18:33:36.342Z,3.03
2022-09-09T18:36:10.727Z,10.05
2022-09-09T18:38:38.579Z,6.45
2022-09-09T18:41:16.069Z,6.25
2022-09-09T18:43:44.438Z,11.55
2022-09-09T18:46:12.935Z,3.55
2022-09-09T18:48:40.400Z,3.97
2022-09-09T18:51:08.561Z,7.10
2022-09-09T18:53:36.945Z,7.07
2022-09-09T18:56:08.393Z,5.50
2022-09-09T18:58:36.024Z,6.93
2022-09-09T19:01:04.779Z,8.68
2022-09-09T19:03:32.377Z,2.60
2022-09-09T19:06:07.202Z,6.30
2022-09-09T19:08:37.002Z,5.20
2022-09-09T19:11:05.116Z,7.28
2022-09-09T19:13:33.043Z,5.03
2022-09-09T19:16:07.871Z,3.75
2022-09-09T19:18:36.891Z,4.88
2022-09-09T19:21:14.453Z,7.72
2022-09-09T19:23:41.887Z,5.85
2022-09-09T19:26:11.038Z,5.28
2022-09-09T19:28:40.178Z,8.05
2022-09-09T19:31:08.485Z,12.60
2022-09-09T19:33:36.351Z,3.72
2022-09-09T19:36:05.177Z,4.30
2022-09-09T19:38:32.720Z,6.05
2022-09-09T19:41:07.158Z,7.22
2022-09-09T19:43:34.991Z,4.80
2022-09-09T19:46:03.981Z,4.85
2022-09-09T19:48:32.188Z,5.55
2022-09-09T19:51:04.472Z,7.20
2022-09-09T19:53:37.619Z,2.65
2022-09-09T19:56:05.258Z,8.25
2022-09-09T19:58:34.538Z,4.05
2022-09-09T20:01:10.565Z,5.68
2022-09-09T20:03:38.494Z,2.05
2022-09-09T20:06:06.315Z,5.80
2022-09-09T20:08:33.878Z,2.25
2022-09-09T20:11:02.293Z,4.30
2022-09-09T20:13:30.460Z,7.70
2022-09-09T20:16:00.309Z,6.05
2022-09-09T20:18:29.123Z,2.75
2022-09-09T20:21:00.525Z,3.65
2022-09-09T20:23:28.301Z,9.20
2022-09-09T20:25:55.752Z,2.97
2022-09-09T20:28:23.377Z,4.97
2022-09-09T20:30:54.973Z,4.55
2022-09-09T20:33:22.305Z,1.95
2022-09-09T20:35:49.570Z,4.28
2022-09-09T20:38:17.310Z,6.75
2022-09-09T20:40:44.589Z,3.53
2022-09-09T20:43:12.998Z,3.13
2022-09-09T20:45:43.716Z,6.72
2022-09-09T20:48:11.048Z,7.80
2022-09-09T20:50:39.317Z,7.05
2022-09-09T20:53:06.629Z,4.13
2022-09-09T20:55:36.701Z,7.07
2022-09-09T20:58:04.243Z,5.70
2022-09-09T21:00:31.517Z,6.20
2022-09-09T21:02:59.654Z,4.47
2022-09-09T21:05:27.822Z,9.27
2022-09-09T21:07:56.777Z,2.85
2022-09-09T21:10:24.050Z,6.63
2022-09-09T21:12:51.259Z,3.92
2022-09-09T21:15:18.506Z,7.85
2022-09-09T21:17:46.309Z,4.93
2022-09-09T21:20:14.081Z,4.15
2022-09-09T21:22:41.322Z,4.90
2022-09-09T21:25:09.550Z,8.23
2022-09-09T21:27:36.786Z,6.30
2022-09-09T21:30:05.054Z,8.70
2022-09-09T21:32:32.802Z,3.33
2022-09-09T21:35:01.322Z,6.07
2022-09-09T21:37:28.537Z,3.88
2022-09-09T21:39:55.814Z,5.13
2022-09-09T21:42:23.140Z,4.03
2022-09-09T21:44:50.424Z,3.60
2022-09-09T21:47:17.718Z,4.25
2022-09-09T21:49:44.921Z,5.40
2022-09-09T21:52:12.176Z,4.30
2022-09-09T21:54:43.610Z,5.15
2022-09-09T21:57:14.237Z,4.45
2022-09-09T21:59:42.114Z,6.43
2022-09-09T22:02:10.774Z,4.20
2022-09-09T22:04:38.773Z,5.70
2022-09-09T22:07:06.873Z,3.97
2022-09-09T22:09:34.544Z,3.50
2022-09-09T22:12:01.940Z,7.03
2022-09-09T22:14:33.174Z,5.90
2022-09-09T22:17:00.349Z,4.18
2022-09-09T22:19:27.582Z,4.90
2022-09-09T22:21:54.813Z,3.30
2022-09-09T22:24:22.079Z,5.88
2022-09-09T22:26:49.294Z,4.20
2022-09-09T22:29:17.473Z,3.55
2022-09-09T22:31:44.657Z,7.85
2022-09-09T22:34:11.885Z,7.32
2022-09-09T22:36:39.305Z,7.30
2022-09-09T22:39:06.524Z,6.18
2022-09-09T22:41:33.935Z,3.40
2022-09-09T22:44:01.473Z,3.85
2022-09-09T22:46:29.330Z,3.20
2022-09-09T22:48:56.904Z,5.28
2022-09-09T22:51:24.219Z,4.80
2022-09-09T22:53:51.483Z,1.10
2022-09-09T22:56:19.618Z,6.78
2022-09-09T22:58:48.168Z,3.17
2022-09-09T23:01:17.026Z,4.65
2022-09-09T23:03:46.124Z,3.17
2022-09-09T23:06:20.115Z,5.05
2022-09-09T23:08:49.278Z,5.38
2022-09-09T23:11:17.333Z,1.92
2022-09-09T23:13:49.549Z,4.80
2022-09-09T23:16:18.834Z,2.97
2022-09-09T23:18:46.893Z,1.17
2022-09-09T23:21:14.838Z,3.08
2022-09-09T23:23:43.182Z,5.88
2022-09-09T23:26:11.541Z,3.95
2022-09-09T23:28:41.889Z,4.47
2022-09-09T23:31:10.454Z,2.00
2022-09-09T23:33:38.126Z,4.70
2022-09-09T23:36:08.423Z,2.67
2022-09-09T23:38:39.398Z,6.13
2022-09-09T23:41:08.566Z,3.20
2022-09-09T23:43:45.038Z,6.47
2022-09-09T23:46:13.937Z,4.97
2022-09-09T23:48:41.707Z,6.32
2022-09-09T23:51:10.049Z,5.03
2022-09-09T23:53:40.832Z,2.75
2022-09-09T23:56:09.201Z,4.25
2022-09-09T23:58:36.557Z,4.65
